• Join FlightAware (Why Join?)
  • Login
  • US Flag 
05:08AM EDT


 

Airport Tracker/Info


-or-


 

Live Flight TrackerFlight Track Log ✈ N680AN ✈ 25-Apr-2013 ✈ KBOS - KDFW

Flight Track Log - Related Links

Times and Time Zones

All times are in EDT time to prevent confusion due to time zone crossing. See the N680AN flight status page for this flight to view local times or setup timezone preferences in your user account.

Time Position Orientation Groundspeed Altitude Reporting Facility
EDT Latitude Longitude Course Direction KTS MPH feet Rate Location/Type
05:08PM 42.3833 -71.0167 304° West 156 180 1,200  Level KA90
05:09PM 42.3833 -71.1000 270° West 207 238 3,600 2,160 Climbing KA90
05:10PM 42.5566 -70.8117 340° North  Level FlightAware Approximate
05:10PM 42.4333 -71.1667 315° West 262 302 5,800  Level KA90
05:11PM 42.6237 -70.9164 308° West  Level FlightAware Approximate
05:11PM 42.5000 -71.2000 340° North 265 305 6,000  Level KA90
05:12PM 42.6767 -71.0373 300° West  Level FlightAware Approximate
05:12PM 42.5833 -71.2167 352° North 272 313 8,800  Level KA90
05:13PM 42.7293 -71.1587 304° West  Level FlightAware Approximate
05:13PM 42.6419 -71.2378 345° North 319 367 10,900  Level Boston Center
05:14PM 42.7256 -71.2617 348° North 324 373 12,100 1,920 Climbing Boston Center
05:15PM 42.7914 -71.3678 310° West 325 374 14,800 2,460 Climbing Boston Center
05:16PM 42.8028 -71.4922 277° West 325 374 17,100 2,100 Climbing Boston Center
05:17PM 42.8164 -71.6250 278° West 347 399 19,000 1,920 Climbing Boston Center
05:18PM 42.8297 -71.7692 277° West 373 429 21,000 2,040 Climbing Boston Center
05:19PM 42.8431 -71.9164 277° West 385 443 23,100 1,920 Climbing Boston Center
05:20PM 42.8583 -72.0661 278° West 390 449 24,900 1,680 Climbing Boston Center
05:21PM 42.8711 -72.2164 277° West 401 461 26,500 1,500 Climbing Boston Center
05:22PM 42.8922 -72.3692 281° West 407 468 28,000 1,620 Climbing Boston Center
05:23PM 42.9069 -72.5281 277° West 413 475 29,800 1,800 Climbing Boston Center
05:24PM 42.9128 -72.6811 273° West 413 475 31,600 1,260 Climbing Boston Center
05:25PM 42.9269 -72.8653 276° West 413 475 32,600 1,080 Climbing Boston Center
05:26PM 42.9450 -73.0328 278° West 406 467 34,000 1,200 Climbing Boston Center
05:27PM 42.9586 -73.1833 277° West 406 467 35,100 960 Climbing Boston Center
05:28PM 42.9719 -73.3397 277° West 406 467 36,000 420 Climbing Boston Center
05:29PM 42.9769 -73.4900 273° West 406 467 36,000  Level Boston Center
05:30PM 42.9922 -73.6464 278° West 406 467 36,000  Level Boston Center
05:31PM 43.0031 -73.8000 276° West 411 473 36,000  Level Boston Center
05:32PM 43.0156 -73.9536 276° West 411 473 36,000 180 Level Boston Center
05:33PM 43.0281 -74.1100 276° West 406 467 36,400 600 Climbing Boston Center
05:34PM 43.0403 -74.2639 276° West 411 473 37,300 780 Climbing Boston Center
05:35PM 43.0522 -74.4178 276° West 406 467 38,000 300 Climbing Boston Center
05:36PM 43.0619 -74.5714 275° West 406 467 38,000  Level Boston Center
05:37PM 43.0736 -74.7253 276° West 406 467 38,000  Level Boston Center
05:38PM 43.0850 -74.8794 276° West 406 467 38,000  Level Boston Center
05:39PM 43.0942 -75.0306 275° West 406 467 38,000  Level Boston Center
05:40PM 43.1050 -75.1872 275° West 406 467 38,000  Level Boston Center
05:41PM 43.1158 -75.3442 275° West 406 467 38,000  Level Boston Center
05:42PM 43.1244 -75.4956 275° West 406 467 38,000  Level Boston Center
05:43PM 43.1292 -75.6208 273° West 406 467 38,000  Level Boston Center
05:44PM 43.1389 -75.7894 275° West 406 467 38,000  Level Boston Center
05:45PM 43.1469 -75.9436 274° West 406 467 38,000  Level Boston Center
05:47PM 43.1531 -76.2172 272° West 388 447 38,000  Level Cleveland Center
05:48PM 43.1125 -76.3567 248° West 393 452 38,000  Level Cleveland Center
05:49PM 43.0694 -76.4961 247° West 399 459 38,000  Level Cleveland Center
05:50PM 43.0244 -76.6353 246° West 399 459 38,000  Level Cleveland Center
05:51PM 42.9789 -76.7717 245° Southwest 399 459 38,000  Level Cleveland Center
05:52PM 42.9353 -76.9078 246° West 399 459 38,000  Level Cleveland Center
05:53PM 42.8917 -77.0436 246° West 399 459 38,000  Level Cleveland Center
05:54PM 42.8478 -77.1792 246° West 399 459 38,000  Level Cleveland Center
05:55PM 42.8036 -77.3144 246° West 399 459 38,000  Level Cleveland Center
05:56PM 42.7594 -77.4497 246° West 399 459 38,000  Level Cleveland Center
05:57PM 42.7075 -77.6050 246° West 404 465 38,000  Level Cleveland Center
05:58PM 42.6686 -77.7256 246° West 404 465 38,000  Level Cleveland Center
05:59PM 42.6161 -77.8803 245° Southwest 404 465 38,000  Level Cleveland Center
06:00PM 42.5692 -78.0175 245° Southwest 404 465 38,000  Level Cleveland Center
06:01PM 42.5222 -78.1575 246° West 404 465 38,000  Level Cleveland Center
06:02PM 42.4731 -78.2975 245° Southwest 404 465 38,000  Level Cleveland Center
06:03PM 42.4256 -78.4369 245° Southwest 404 465 38,000  Level Cleveland Center
06:04PM 42.3783 -78.5792 246° West 404 465 38,000  Level Cleveland Center
06:05PM 42.3283 -78.7183 244° Southwest 404 465 38,000  Level Cleveland Center
06:06PM 42.2806 -78.8600 246° West 404 465 38,000  Level Cleveland Center
06:07PM 42.2283 -79.0017 244° Southwest 404 465 38,000 60 Level Cleveland Center
06:08PM 42.1806 -79.1542 247° West 429 494 38,200  Climbing Cleveland Center
06:09PM 42.1444 -79.2894 250° West 416 479 38,000 -120 Descending Cleveland Center
06:10PM 42.1064 -79.4331 250° West 411 473 38,000  Level Cleveland Center
06:11PM 42.0722 -79.5622 250° West 411 473 38,000  Level Cleveland Center
06:12PM 42.0339 -79.7194 252° West 411 473 38,000  Level Cleveland Center
06:13PM 42.0075 -79.8286 252° West 401 461 38,000  Level Cleveland Center
06:14PM 41.9564 -80.0025 248° West 401 461 38,000  Level Cleveland Center
06:15PM 41.9217 -80.1422 252° West 406 467 38,000  Level Cleveland Center
06:16PM 41.8825 -80.2819 249° West 406 467 38,000  Level Cleveland Center
06:17PM 41.8472 -80.4214 251° West 401 461 38,000  Level Cleveland Center
06:18PM 41.8078 -80.5636 250° West 406 467 38,000  Level Cleveland Center
06:19PM 41.7722 -80.7000 251° West 406 467 38,000  Level Cleveland Center
06:20PM 41.7367 -80.8281 250° West 406 467 38,000  Level Cleveland Center
06:21PM 41.6967 -80.9697 249° West 406 467 38,000  Level Cleveland Center
06:22PM 41.6586 -81.1083 250° West 406 467 38,000  Level Cleveland Center
06:23PM 41.6203 -81.2525 250° West 406 467 38,000  Level Cleveland Center
06:24PM 41.5819 -81.3908 250° West 406 467 38,000  Level Cleveland Center
06:25PM 41.5411 -81.5319 249° West 406 467 38,000  Level Cleveland Center
06:26PM 41.5025 -81.6728 250° West 406 467 38,000  Level Cleveland Center
06:27PM 41.4636 -81.8106 249° West 406 467 38,000  Level Cleveland Center
06:28PM 41.4222 -81.9483 248° West 406 467 38,000  Level Cleveland Center
06:29PM 41.3786 -82.0997 249° West 406 467 38,000  Level Cleveland Center
06:30PM 41.3292 -82.2172 241° Southwest 406 467 38,000  Level Cleveland Center
06:31PM 41.2628 -82.3400 234° Southwest 411 473 38,000  Level Cleveland Center
06:32PM 41.1942 -82.4594 233° Southwest 411 473 38,000  Level Cleveland Center
06:33PM 41.1275 -82.5789 233° Southwest 411 473 38,000  Level Cleveland Center
06:34PM 41.0542 -82.7117 234° Southwest 405 466 38,000  Level Cleveland Center
06:35PM 40.9872 -82.8306 233° Southwest 405 466 38,000  Level Cleveland Center
06:36PM 40.8792 -83.0211 233° Southwest 401 461 38,000  Level Indianapolis Center
06:38PM 40.7901 -83.1664 231° Southwest  Level FlightAware Approximate
06:38PM 40.7422 -83.2606 231° Southwest 405 466 38,000  Level Indianapolis Center
06:39PM 40.6739 -83.3803 233° Southwest 407 468 38,000  Level Indianapolis Center
06:40PM 40.6050 -83.4992 233° Southwest 407 468 38,000  Level Indianapolis Center
06:41PM 40.5364 -83.6164 232° Southwest 405 466 38,000  Level Indianapolis Center
06:42PM 40.4564 -83.7558 233° Southwest 407 468 38,000  Level Indianapolis Center
06:43PM 40.3869 -83.8736 232° Southwest 406 467 38,000  Level Indianapolis Center
06:44PM 40.3192 -83.9919 233° Southwest 404 465 38,000  Level Indianapolis Center
06:46PM 40.2478 -84.1089 231° Southwest 409 471 38,000  Level Indianapolis Center
06:47PM 40.1736 -84.2217 229° Southwest 409 471 38,000  Level Indianapolis Center
06:48PM 40.1008 -84.3364 230° Southwest 408 470 38,000  Level Indianapolis Center
06:49PM 40.0158 -84.4681 230° Southwest 405 466 38,000  Level Indianapolis Center
06:50PM 39.9403 -84.5792 228° Southwest 407 468 38,000  Level Indianapolis Center
06:51PM 39.8681 -84.6903 230° Southwest 400 460 38,000  Level Indianapolis Center
06:52PM 39.7944 -84.8008 229° Southwest 401 461 38,000  Level Indianapolis Center
06:53PM 39.7175 -84.9194 230° Southwest 397 457 38,000  Level Indianapolis Center
06:54PM 39.6439 -85.0308 229° Southwest 401 461 38,000  Level Indianapolis Center
06:55PM 39.5700 -85.1406 229° Southwest 400 460 38,000  Level Indianapolis Center
06:56PM 39.4967 -85.2511 229° Southwest 402 463 38,000  Level Indianapolis Center
06:57PM 39.4219 -85.3611 229° Southwest 403 464 38,000  Level Indianapolis Center
06:58PM 39.3364 -85.4906 230° Southwest 401 461 38,000  Level Indianapolis Center
06:59PM 39.2661 -85.6047 232° Southwest 401 461 38,000  Level Indianapolis Center
07:00PM 39.1983 -85.7203 233° Southwest 401 461 38,000  Level Indianapolis Center
07:01PM 39.1292 -85.8344 232° Southwest 400 460 38,000  Level Indianapolis Center
07:02PM 39.0600 -85.9494 232° Southwest 402 463 38,100 420 Climbing Indianapolis Center
07:03PM 38.9919 -86.0614 232° Southwest 397 457 38,900 660 Climbing Indianapolis Center
07:04PM 38.9225 -86.1753 232° Southwest 399 459 39,500 480 Climbing Indianapolis Center
07:05PM 38.8522 -86.2903 232° Southwest 403 464 39,900 240 Climbing Indianapolis Center
07:06PM 38.7831 -86.4050 232° Southwest 405 466 40,000  Climbing Indianapolis Center
07:07PM 38.7139 -86.5150 231° Southwest 397 457 40,000  Level Indianapolis Center
07:08PM 38.6322 -86.6478 232° Southwest 394 453 40,000  Level Indianapolis Center
07:09PM 38.5647 -86.7553 231° Southwest 388 447 40,000  Level Indianapolis Center
07:10PM 38.4978 -86.8619 231° Southwest 385 443 40,000  Level Indianapolis Center
07:11PM 38.4297 -86.9708 231° Southwest 391 450 40,000  Level Indianapolis Center
07:12PM 38.3608 -87.0772 230° Southwest 393 452 40,000  Level Indianapolis Center
07:13PM 38.2919 -87.1903 232° Southwest 397 457 40,000  Level Indianapolis Center
07:14PM 38.2142 -87.3136 231° Southwest 397 457 40,000  Level Indianapolis Center
07:15PM 38.1453 -87.4217 231° Southwest 395 455 40,000  Level Indianapolis Center
07:16PM 38.0772 -87.5286 231° Southwest 388 447 40,000  Level Indianapolis Center
07:18PM 38.0081 -87.6367 231° Southwest 392 451 40,000  Level Indianapolis Center
07:19PM 37.9394 -87.7444 231° Southwest 390 449 40,000  Level Indianapolis Center
07:20PM 37.8683 -87.8497 229° Southwest 392 451 40,000  Level Indianapolis Center
07:21PM 37.7811 -87.9750 229° Southwest 394 453 40,000  Level Indianapolis Center
07:22PM 37.7164 -88.0692 229° Southwest 394 453 40,000  Level Indianapolis Center
07:23PM 37.6436 -88.1728 228° Southwest 391 450 40,000  Level Indianapolis Center
07:23PM 37.5811 -88.2739 232° Southwest 397 457 40,000  Level Memphis Center
07:24PM 37.5642 -88.2861 210° Southwest 390 449 40,000  Level Indianapolis Center
07:24PM 37.5097 -88.3753 232° Southwest 392 451 40,000  Level Memphis Center
07:25PM 37.4364 -88.4789 228° Southwest 397 457 40,000  Level Memphis Center
07:26PM 37.3650 -88.5797 228° Southwest 397 457 40,000  Level Memphis Center
07:27PM 37.2933 -88.6806 228° Southwest 392 451 40,000  Level Memphis Center
07:28PM 37.2219 -88.7811 228° Southwest 392 451 40,000  Level Memphis Center
07:29PM 37.1503 -88.8839 229° Southwest 398 458 40,000  Level Memphis Center
07:30PM 37.0783 -88.9842 228° Southwest 398 458 40,000  Level Memphis Center
07:31PM 37.0067 -89.0839 228° Southwest 398 458 40,000  Level Memphis Center
07:32PM 36.9347 -89.1864 229° Southwest 398 458 40,000  Level Memphis Center
07:33PM 36.8606 -89.2886 228° Southwest 398 458 40,000  Level Memphis Center
07:34PM 36.7883 -89.3881 228° Southwest 398 458 40,000  Level Memphis Center
07:35PM 36.7142 -89.4897 228° Southwest 398 458 40,000  Level Memphis Center
07:36PM 36.6419 -89.5914 228° Southwest 398 458 40,000  Level Memphis Center
07:37PM 36.5675 -89.6931 228° Southwest 398 458 40,000  Level Memphis Center
07:38PM 36.4950 -89.7917 228° Southwest 393 452 40,000  Level Memphis Center
07:39PM 36.4203 -89.8903 227° Southwest 393 452 40,000  Level Memphis Center
07:40PM 36.3497 -89.9858 228° Southwest 393 452 40,000  Level Memphis Center
07:41PM 36.2792 -90.0814 228° Southwest 393 452 40,000  Level Memphis Center
07:42PM 36.2086 -90.1794 228° Southwest 393 452 40,000  Level Memphis Center
07:43PM 36.1336 -90.2747 226° Southwest 393 452 40,000  Level Memphis Center
07:44PM 36.0647 -90.3697 228° Southwest 393 452 40,000  Level Memphis Center
07:45PM 35.9917 -90.4672 227° Southwest 393 452 40,000  Level Memphis Center
07:46PM 35.9208 -90.5619 227° Southwest 393 452 40,000  Level Memphis Center
07:47PM 35.8475 -90.6542 226° Southwest 393 452 40,000  Level Memphis Center
07:48PM 35.7786 -90.7511 229° Southwest 393 452 40,000  Level Memphis Center
07:49PM 35.7072 -90.8453 227° Southwest 387 445 40,000  Level Memphis Center
07:50PM 35.6381 -90.9419 229° Southwest 382 440 40,000  Level Memphis Center
07:51PM 35.5644 -91.0358 226° Southwest 387 445 40,000  Level Memphis Center
07:52PM 35.4911 -91.1322 227° Southwest 387 445 40,000  Level Memphis Center
07:53PM 35.4278 -91.2183 228° Southwest 387 445 40,000  Level Memphis Center
07:54PM 35.3436 -91.3192 224° Southwest 387 445 40,000  Level Memphis Center
07:55PM 35.2742 -91.4125 228° Southwest 387 445 40,000  Level Memphis Center
07:56PM 35.1981 -91.5081 226° Southwest 387 445 40,000  Level Memphis Center
07:57PM 35.1283 -91.6011 228° Southwest 387 445 40,000  Level Memphis Center
07:58PM 35.0544 -91.6939 226° Southwest 387 445 40,000  Level Memphis Center
07:59PM 34.9847 -91.7867 227° Southwest 382 440 40,000  Level Memphis Center
08:00PM 34.9292 -91.8894 237° Southwest 376 433 40,000  Level Memphis Center
08:01PM 34.8903 -91.9978 246° West 358 412 40,000  Level Memphis Center
08:02PM 34.8511 -92.1058 246° West 353 406 40,000  Level Memphis Center
08:03PM 34.8100 -92.2161 246° West 358 412 40,000  Level Memphis Center
08:04PM 34.7728 -92.3217 247° West 358 412 40,000  Level Memphis Center
08:05PM 34.7336 -92.4292 246° West 358 412 40,000  Level Memphis Center
08:06PM 34.6942 -92.5369 246° West 358 412 40,000  Level Memphis Center
08:07PM 34.6547 -92.6419 245° Southwest 358 412 40,000  Level Memphis Center
08:08PM 34.6153 -92.7519 246° West 358 412 40,000  Level Memphis Center
08:09PM 34.5733 -92.8592 245° Southwest 353 406 40,000  Level Memphis Center
08:10PM 34.5317 -92.9639 244° Southwest 358 412 40,000  Level Memphis Center
08:11PM 34.4939 -93.0711 247° West 351 404 40,000  Level Memphis Center
08:12PM 34.4517 -93.1806 245° Southwest 356 410 40,000  Level Memphis Center
08:13PM 34.4078 -93.2850 243° Southwest 356 410 40,000  Level Memphis Center
08:15PM 34.3622 -93.4186 248° West 356 410 40,000  Level Fort Worth Center
08:16PM 34.3239 -93.5258 247° West 356 410 40,000  Level Fort Worth Center
08:17PM 34.2919 -93.6381 251° West 356 410 40,000  Level Fort Worth Center
08:18PM 34.2617 -93.7447 251° West 351 404 40,000  Level Fort Worth Center
08:19PM 34.2294 -93.8542 250° West 351 404 40,000  Level Fort Worth Center
08:20PM 34.1989 -93.9633 251° West 351 404 40,000  Level Fort Worth Center
08:21PM 34.1686 -94.0750 252° West 351 404 40,000 -540 Level Fort Worth Center
08:22PM 34.1361 -94.1842 250° West 351 404 39,000 -1,320 Descending Fort Worth Center
08:23PM 34.1056 -94.2956 252° West 351 404 37,400 -1,680 Descending Fort Worth Center
08:24PM 34.0686 -94.4072 248° West 351 404 35,700 -1,800 Descending Fort Worth Center
08:25PM 34.0317 -94.5239 249° West 361 415 33,900 -1,860 Descending Fort Worth Center
08:26PM 33.9906 -94.6456 248° West 377 434 32,000 -1,980 Descending Fort Worth Center
08:27PM 33.9494 -94.7669 248° West 386 444 30,000 -2,040 Descending Fort Worth Center
08:28PM 33.9061 -94.8958 248° West 401 461 28,000 -1,800 Descending Fort Worth Center
08:29PM 33.8647 -95.0247 249° West 414 476 26,500 -1,380 Descending Fort Worth Center
08:30PM 33.8192 -95.1533 247° West 414 476 25,300 -1,200 Descending Fort Worth Center
08:31PM 33.7794 -95.2769 249° West 414 476 24,200 -660 Descending Fort Worth Center
08:32PM 33.7358 -95.4003 247° West 409 471 24,000 -120 Descending Fort Worth Center
08:33PM 33.6981 -95.5211 249° West 403 464 24,000  Level Fort Worth Center
08:34PM 33.6519 -95.6542 247° West 397 457 24,000  Level Fort Worth Center
08:35PM 33.6097 -95.7797 248° West 397 457 24,000 -900 Level Fort Worth Center
08:36PM 33.5694 -95.9028 249° West 402 463 22,300 -2,160 Descending Fort Worth Center
08:37PM 33.5269 -96.0231 247° West 397 457 19,700 -2,760 Descending Fort Worth Center
08:38PM 33.4867 -96.1383 247° West 392 451 16,800 -2,700 Descending Fort Worth Center
08:39PM 33.4481 -96.2533 248° West 392 451 14,400 -2,520 Descending Fort Worth Center
08:40PM 33.4114 -96.3608 248° West 357 411 11,800 -1,800 Descending Fort Worth Center
08:41PM 33.3681 -96.4408 237° Southwest 313 360 10,800 -1,200 Descending Fort Worth Center
08:42PM 33.3164 -96.5061 227° Southwest 279 321 9,500 -1,440 Descending Fort Worth Center
08:43PM 33.2878 -96.5833 246° West 261 300 8,000 -1,620 Descending Fort Worth Center
08:44PM 33.2550 -96.6608 243° Southwest 261 300 6,300 -1,500 Descending Fort Worth Center
08:45PM 33.2136 -96.7306 235° Southwest 267 307 5,000 -660 Descending Fort Worth Center
08:46PM 33.1764 -96.7956 236° Southwest 267 307 5,000  Level Fort Worth Center
08:47PM 33.1328 -96.8678 234° Southwest 267 307 5,000 -540 Level Fort Worth Center
08:48PM 33.0892 -96.9422 235° Southwest 267 307 4,000 -1,320 Descending Fort Worth Center
08:48PM 33.0667 -96.9667 222° Southwest 265 305 3,200 -1,020 Descending Dallas / Fort Worth TRACON
08:49PM 33.0333 -97.0167 232° Southwest 215 247 2,700 -600 Descending Dallas / Fort Worth TRACON